Portada
METAR-TAF:

METAR-TAF

Aeroports :

Aeroport Internacional Quatro de Fevereiro

Luanda, Angola

latitud: 08-51S, longitud: 013-14E, altitud: 74 m

Observació

L'informe es va fer fa 23 minuts, a les 12:00 UTC
Vent 9 kt del Oest
Temperatura 25°C
Humitat 74%
Pressió 1012 hPa
Visibilitat 10 km o més
Núvols disperses a una alçada de 2100 ft

METAR: FNLU 291200Z 27009KT 9999 SCT021 25/20 Q1012 NOSIG

Hora: 13:23 (12:23 UTC)

Pronòstic

L'informe es va fer fa 1 hora i 13 minuts, a les 11:10 UTC
Pronòstic vàlid del 29 a les 12 UTC al 30 a les 18 UTC
Vent 9 kt del Oest/Sud-Oest
Visibilitat: 9000 m
Cel ennuvolat a una alçada de 2000 ft
Temporalment
l' 29 a les 13 UTC al 29 a les 19 UTC
Visibilitat 10 km o més
Escasses núvols a una alçada de 2000 ft
Evolucionant progressivament
l' 29 a les 22 UTC al 29 a les 24 UTC
Visibilitat: 9000 m
Núvols disperses a una alçada de 2000 ft

TAF: FNLU 291110Z 2912/3018 25009KT 9000 BKN020 TEMPO 2913/2919 9999 FEW020 BECMG 2922/2924 9000 SCT020

Observacions i pronòstics meteorològics de més de 4000 aeroports (METAR i TAF).

Les estacions disponibles són els punts grocs i vermells al mapa.

Posi el ratolí al punt desitjat per veure el nom de l'estació.

Feu clic per veure les observacions i els pronòstics meteorològics.

Per canviar el mapa: feu clic els botons verds amb una creu de color negre per apropar; al botó verd amb un guió per allunyar la imatge; o en les fletxes verdes per a mapes adjacents.


METAR-TAF: